sensor_id;sensor_type;location;lat;lon;timestamp;pressure;altitude;pressure_sealevel;temperature;humidity
47220;BME280;32961;51.936;4.788;2023-02-17T00:00:57;101895.84;;;9.27;100.00
47220;BME280;32961;51.936;4.788;2023-02-17T00:03:25;101887.63;;;9.28;100.00
47220;BME280;32961;51.936;4.788;2023-02-17T00:05:53;101884.78;;;9.30;100.00
47220;BME280;32961;51.936;4.788;2023-02-17T00:08:21;101885.75;;;9.29;100.00
47220;BME280;32961;51.936;4.788;2023-02-17T00:10:56;101887.94;;;9.24;100.00
47220;BME280;32961;51.936;4.788;2023-02-17T00:13:24;101884.47;;;9.22;100.00
47220;BME280;32961;51.936;4.788;2023-02-17T00:15:53;101878.38;;;9.18;100.00
47220;BME280;32961;51.936;4.788;2023-02-17T00:18:21;101879.28;;;9.19;100.00
47220;BME280;32961;51.936;4.788;2023-02-17T00:20:50;101873.41;;;9.12;100.00
47220;BME280;32961;51.936;4.788;2023-02-17T00:23:18;101869.72;;;9.13;100.00
47220;BME280;32961;51.936;4.788;2023-02-17T00:25:46;101867.97;;;9.12;100.00
47220;BME280;32961;51.936;4.788;2023-02-17T00:28:13;101875.25;;;9.11;100.00
47220;BME280;32961;51.936;4.788;2023-02-17T00:30:41;101871.03;;;9.07;100.00
47220;BME280;32961;51.936;4.788;2023-02-17T00:33:10;101884.69;;;9.06;100.00
47220;BME280;32961;51.936;4.788;2023-02-17T00:35:39;101891.00;;;9.06;100.00
47220;BME280;32961;51.936;4.788;2023-02-17T00:38:08;101874.53;;;8.96;100.00
47220;BME280;32961;51.936;4.788;2023-02-17T00:40:35;101882.00;;;8.93;100.00
47220;BME280;32961;51.936;4.788;2023-02-17T00:43:04;101870.06;;;8.95;100.00
47220;BME280;32961;51.936;4.788;2023-02-17T00:45:32;101864.72;;;8.94;100.00
47220;BME280;32961;51.936;4.788;2023-02-17T00:48:00;101861.50;;;8.89;100.00
47220;BME280;32961;51.936;4.788;2023-02-17T00:50:29;101860.75;;;8.87;100.00
47220;BME280;32961;51.936;4.788;2023-02-17T00:52:57;101862.91;;;8.81;100.00
47220;BME280;32961;51.936;4.788;2023-02-17T00:55:24;101867.56;;;8.79;100.00
47220;BME280;32961;51.936;4.788;2023-02-17T00:57:52;101873.72;;;8.81;100.00
47220;BME280;32961;51.936;4.788;2023-02-17T01:00:20;101868.44;;;8.80;100.00
47220;BME280;32961;51.936;4.788;2023-02-17T01:02:48;101872.88;;;8.81;100.00
47220;BME280;32961;51.936;4.788;2023-02-17T01:05:16;101859.22;;;8.82;100.00
47220;BME280;32961;51.936;4.788;2023-02-17T01:07:45;101870.06;;;8.82;100.00
47220;BME280;32961;51.936;4.788;2023-02-17T01:10:13;101871.03;;;8.81;100.00
47220;BME280;32961;51.936;4.788;2023-02-17T01:12:41;101859.44;;;8.79;100.00
47220;BME280;32961;51.936;4.788;2023-02-17T01:15:09;101864.09;;;8.77;100.00
47220;BME280;32961;51.936;4.788;2023-02-17T01:17:37;101860.53;;;8.77;100.00
47220;BME280;32961;51.936;4.788;2023-02-17T01:20:06;101865.84;;;8.78;100.00
47220;BME280;32961;51.936;4.788;2023-02-17T01:22:34;101878.72;;;8.75;100.00
47220;BME280;32961;51.936;4.788;2023-02-17T01:25:03;101875.06;;;8.76;100.00
47220;BME280;32961;51.936;4.788;2023-02-17T01:27:31;101891.44;;;8.74;100.00
47220;BME280;32961;51.936;4.788;2023-02-17T01:29:59;101879.59;;;8.75;100.00
47220;BME280;32961;51.936;4.788;2023-02-17T01:32:27;101895.97;;;8.74;100.00
47220;BME280;32961;51.936;4.788;2023-02-17T01:34:55;101875.47;;;8.70;100.00
47220;BME280;32961;51.936;4.788;2023-02-17T01:37:22;101872.84;;;8.68;100.00
47220;BME280;32961;51.936;4.788;2023-02-17T01:39:50;101857.59;;;8.67;100.00
47220;BME280;32961;51.936;4.788;2023-02-17T01:42:19;101854.13;;;8.65;100.00
47220;BME280;32961;51.936;4.788;2023-02-17T01:47:59;101848.16;;;8.60;100.00
47220;BME280;32961;51.936;4.788;2023-02-17T01:50:35;101840.69;;;8.63;100.00
47220;BME280;32961;51.936;4.788;2023-02-17T01:53:05;101843.28;;;8.65;100.00
47220;BME280;32961;51.936;4.788;2023-02-17T01:55:36;101845.22;;;8.63;100.00
47220;BME280;32961;51.936;4.788;2023-02-17T01:58:10;101850.63;;;8.63;100.00
47220;BME280;32961;51.936;4.788;2023-02-17T02:00:40;101855.09;;;8.64;100.00
47220;BME280;32961;51.936;4.788;2023-02-17T02:03:12;101847.41;;;8.58;100.00
47220;BME280;32961;51.936;4.788;2023-02-17T02:05:41;101843.06;;;8.55;100.00
47220;BME280;32961;51.936;4.788;2023-02-17T02:08:10;101848.59;;;8.54;100.00
47220;BME280;32961;51.936;4.788;2023-02-17T02:10:38;101837.84;;;8.52;100.00
47220;BME280;32961;51.936;4.788;2023-02-17T02:13:07;101823.00;;;8.58;100.00
47220;BME280;32961;51.936;4.788;2023-02-17T02:15:40;101816.75;;;8.57;100.00
47220;BME280;32961;51.936;4.788;2023-02-17T02:18:30;101807.31;;;8.50;100.00
47220;BME280;32961;51.936;4.788;2023-02-17T02:24:22;101801.00;;;8.49;100.00
47220;BME280;32961;51.936;4.788;2023-02-17T02:30:20;101804.28;;;8.55;100.00
47220;BME280;32961;51.936;4.788;2023-02-17T02:33:00;101801.34;;;8.58;100.00
47220;BME280;32961;51.936;4.788;2023-02-17T02:35:36;101798.88;;;8.55;100.00
47220;BME280;32961;51.936;4.788;2023-02-17T02:38:12;101795.50;;;8.51;100.00
47220;BME280;32961;51.936;4.788;2023-02-17T02:40:46;101796.66;;;8.47;100.00
47220;BME280;32961;51.936;4.788;2023-02-17T02:43:16;101793.97;;;8.47;100.00
47220;BME280;32961;51.936;4.788;2023-02-17T02:45:43;101782.34;;;8.45;100.00
47220;BME280;32961;51.936;4.788;2023-02-17T02:48:13;101791.25;;;8.47;100.00
47220;BME280;32961;51.936;4.788;2023-02-17T02:50:54;101792.19;;;8.46;100.00
47220;BME280;32961;51.936;4.788;2023-02-17T02:53:40;101786.72;;;8.47;100.00
47220;BME280;32961;51.936;4.788;2023-02-17T02:56:21;101790.94;;;8.51;100.00
47220;BME280;32961;51.936;4.788;2023-02-17T02:59:01;101789.97;;;8.53;100.00
47220;BME280;32961;51.936;4.788;2023-02-17T03:01:37;101783.59;;;8.54;100.00
47220;BME280;32961;51.936;4.788;2023-02-17T03:04:14;101778.16;;;8.54;100.00
47220;BME280;32961;51.936;4.788;2023-02-17T03:06:48;101762.88;;;8.53;100.00
47220;BME280;32961;51.936;4.788;2023-02-17T03:09:21;101784.31;;;8.56;100.00
47220;BME280;32961;51.936;4.788;2023-02-17T03:11:51;101786.28;;;8.54;100.00
47220;BME280;32961;51.936;4.788;2023-02-17T03:14:20;101774.13;;;8.59;100.00
47220;BME280;32961;51.936;4.788;2023-02-17T03:16:49;101764.19;;;8.60;100.00
47220;BME280;32961;51.936;4.788;2023-02-17T03:19:21;101754.19;;;8.60;100.00
47220;BME280;32961;51.936;4.788;2023-02-17T03:21:52;101747.94;;;8.60;100.00
47220;BME280;32961;51.936;4.788;2023-02-17T03:24:23;101754.00;;;8.63;100.00
47220;BME280;32961;51.936;4.788;2023-02-17T03:26:51;101743.56;;;8.70;100.00
47220;BME280;32961;51.936;4.788;2023-02-17T03:29:18;101731.75;;;8.71;100.00
47220;BME280;32961;51.936;4.788;2023-02-17T03:31:46;101720.91;;;8.71;100.00
47220;BME280;32961;51.936;4.788;2023-02-17T03:34:14;101730.78;;;8.72;100.00
47220;BME280;32961;51.936;4.788;2023-02-17T03:36:43;101727.97;;;8.74;100.00
47220;BME280;32961;51.936;4.788;2023-02-17T03:39:11;101728.72;;;8.76;100.00
47220;BME280;32961;51.936;4.788;2023-02-17T03:41:39;101732.28;;;8.76;100.00
47220;BME280;32961;51.936;4.788;2023-02-17T03:44:06;101718.84;;;8.75;100.00
47220;BME280;32961;51.936;4.788;2023-02-17T03:46:34;101724.28;;;8.75;100.00
47220;BME280;32961;51.936;4.788;2023-02-17T03:49:04;101715.81;;;8.79;100.00
47220;BME280;32961;51.936;4.788;2023-02-17T03:51:32;101735.75;;;8.78;100.00
47220;BME280;32961;51.936;4.788;2023-02-17T03:54:01;101739.13;;;8.82;100.00
47220;BME280;32961;51.936;4.788;2023-02-17T03:56:29;101748.09;;;8.82;100.00
47220;BME280;32961;51.936;4.788;2023-02-17T03:58:57;101733.47;;;8.85;100.00
47220;BME280;32961;51.936;4.788;2023-02-17T04:01:25;101739.00;;;8.83;100.00
47220;BME280;32961;51.936;4.788;2023-02-17T04:03:52;101744.31;;;8.85;100.00
47220;BME280;32961;51.936;4.788;2023-02-17T04:06:20;101739.84;;;8.84;100.00
47220;BME280;32961;51.936;4.788;2023-02-17T04:08:48;101745.06;;;8.87;100.00
47220;BME280;32961;51.936;4.788;2023-02-17T04:11:17;101742.69;;;8.82;100.00
47220;BME280;32961;51.936;4.788;2023-02-17T04:13:45;101745.38;;;8.82;100.00
47220;BME280;32961;51.936;4.788;2023-02-17T04:16:13;101757.84;;;8.85;100.00
47220;BME280;32961;51.936;4.788;2023-02-17T04:18:41;101765.91;;;8.87;100.00
47220;BME280;32961;51.936;4.788;2023-02-17T04:21:08;101767.41;;;8.91;100.00
47220;BME280;32961;51.936;4.788;2023-02-17T04:23:37;101767.59;;;8.88;100.00
47220;BME280;32961;51.936;4.788;2023-02-17T04:26:06;101771.31;;;8.87;100.00
47220;BME280;32961;51.936;4.788;2023-02-17T04:28:36;101753.31;;;8.86;100.00
47220;BME280;32961;51.936;4.788;2023-02-17T04:31:04;101754.16;;;8.86;100.00
47220;BME280;32961;51.936;4.788;2023-02-17T04:33:32;101748.75;;;8.86;100.00
47220;BME280;32961;51.936;4.788;2023-02-17T04:36:00;101745.91;;;8.88;100.00
47220;BME280;32961;51.936;4.788;2023-02-17T04:38:30;101749.00;;;8.83;100.00
47220;BME280;32961;51.936;4.788;2023-02-17T04:40:59;101743.44;;;8.85;100.00
47220;BME280;32961;51.936;4.788;2023-02-17T04:43:27;101746.91;;;8.87;100.00
47220;BME280;32961;51.936;4.788;2023-02-17T04:45:56;101728.81;;;8.87;100.00
47220;BME280;32961;51.936;4.788;2023-02-17T04:48:25;101724.22;;;8.88;100.00
47220;BME280;32961;51.936;4.788;2023-02-17T04:50:53;101729.66;;;8.88;100.00
47220;BME280;32961;51.936;4.788;2023-02-17T04:53:21;101723.19;;;8.90;100.00
47220;BME280;32961;51.936;4.788;2023-02-17T04:55:51;101733.91;;;8.92;100.00
47220;BME280;32961;51.936;4.788;2023-02-17T04:58:19;101725.53;;;8.95;100.00
47220;BME280;32961;51.936;4.788;2023-02-17T05:00:48;101716.88;;;8.90;100.00
47220;BME280;32961;51.936;4.788;2023-02-17T05:03:18;101747.66;;;8.89;100.00
47220;BME280;32961;51.936;4.788;2023-02-17T05:05:46;101752.09;;;8.90;100.00
47220;BME280;32961;51.936;4.788;2023-02-17T05:08:13;101761.97;;;8.91;100.00
47220;BME280;32961;51.936;4.788;2023-02-17T05:10:41;101765.31;;;8.94;100.00
47220;BME280;32961;51.936;4.788;2023-02-17T05:13:09;101767.16;;;8.94;100.00
47220;BME280;32961;51.936;4.788;2023-02-17T05:15:37;101760.34;;;8.88;100.00
47220;BME280;32961;51.936;4.788;2023-02-17T05:18:05;101761.97;;;8.91;100.00
47220;BME280;32961;51.936;4.788;2023-02-17T05:20:34;101750.16;;;8.92;100.00
47220;BME280;32961;51.936;4.788;2023-02-17T05:23:02;101752.88;;;8.92;100.00
47220;BME280;32961;51.936;4.788;2023-02-17T05:25:30;101759.91;;;8.94;100.00
47220;BME280;32961;51.936;4.788;2023-02-17T05:27:58;101751.66;;;8.96;100.00
47220;BME280;32961;51.936;4.788;2023-02-17T05:30:25;101743.31;;;8.99;100.00
47220;BME280;32961;51.936;4.788;2023-02-17T05:32:53;101741.56;;;8.98;100.00
47220;BME280;32961;51.936;4.788;2023-02-17T05:35:21;101737.00;;;8.98;100.00
47220;BME280;32961;51.936;4.788;2023-02-17T05:37:51;101734.41;;;8.97;100.00
47220;BME280;32961;51.936;4.788;2023-02-17T05:40:19;101734.22;;;9.00;100.00
47220;BME280;32961;51.936;4.788;2023-02-17T05:42:47;101737.78;;;9.01;100.00
47220;BME280;32961;51.936;4.788;2023-02-17T05:45:14;101726.59;;;9.05;100.00
47220;BME280;32961;51.936;4.788;2023-02-17T05:47:42;101731.13;;;9.05;100.00
47220;BME280;32961;51.936;4.788;2023-02-17T05:50:10;101717.50;;;9.06;100.00
47220;BME280;32961;51.936;4.788;2023-02-17T05:52:38;101717.50;;;9.06;100.00
47220;BME280;32961;51.936;4.788;2023-02-17T05:55:07;101711.31;;;9.04;100.00
47220;BME280;32961;51.936;4.788;2023-02-17T05:57:35;101697.97;;;9.01;100.00
47220;BME280;32961;51.936;4.788;2023-02-17T06:00:04;101702.41;;;9.02;100.00
47220;BME280;32961;51.936;4.788;2023-02-17T06:02:32;101705.75;;;9.06;100.00
47220;BME280;32961;51.936;4.788;2023-02-17T06:05:00;101702.06;;;9.07;100.00
47220;BME280;32961;51.936;4.788;2023-02-17T06:07:28;101707.38;;;9.08;100.00
47220;BME280;32961;51.936;4.788;2023-02-17T06:09:55;101697.63;;;9.06;100.00
47220;BME280;32961;51.936;4.788;2023-02-17T06:12:25;101701.09;;;9.08;100.00
47220;BME280;32961;51.936;4.788;2023-02-17T06:14:52;101699.25;;;9.08;100.00
47220;BME280;32961;51.936;4.788;2023-02-17T06:17:20;101706.19;;;9.12;100.00
47220;BME280;32961;51.936;4.788;2023-02-17T06:19:48;101720.47;;;9.14;100.00
47220;BME280;32961;51.936;4.788;2023-02-17T06:22:16;101717.03;;;9.12;100.00
47220;BME280;32961;51.936;4.788;2023-02-17T06:24:44;101707.81;;;9.15;100.00
47220;BME280;32961;51.936;4.788;2023-02-17T06:27:12;101696.19;;;9.13;100.00
47220;BME280;32961;51.936;4.788;2023-02-17T06:29:41;101702.47;;;9.13;100.00
47220;BME280;32961;51.936;4.788;2023-02-17T06:32:10;101695.09;;;9.15;100.00
47220;BME280;32961;51.936;4.788;2023-02-17T06:34:38;101708.31;;;9.20;100.00
47220;BME280;32961;51.936;4.788;2023-02-17T06:37:05;101710.19;;;9.20;100.00
47220;BME280;32961;51.936;4.788;2023-02-17T06:39:33;101695.75;;;9.19;100.00
47220;BME280;32961;51.936;4.788;2023-02-17T06:42:01;101702.13;;;9.18;100.00
47220;BME280;32961;51.936;4.788;2023-02-17T06:44:29;101707.69;;;9.17;100.00
47220;BME280;32961;51.936;4.788;2023-02-17T06:46:58;101701.03;;;9.21;100.00
47220;BME280;32961;51.936;4.788;2023-02-17T06:49:26;101682.94;;;9.21;100.00
47220;BME280;32961;51.936;4.788;2023-02-17T06:51:53;101688.13;;;9.24;100.00
47220;BME280;32961;51.936;4.788;2023-02-17T06:54:21;101684.44;;;9.25;100.00
47220;BME280;32961;51.936;4.788;2023-02-17T06:56:49;101680.75;;;9.26;100.00
47220;BME280;32961;51.936;4.788;2023-02-17T06:59:17;101686.16;;;9.26;100.00
47220;BME280;32961;51.936;4.788;2023-02-17T07:01:45;101695.28;;;9.25;100.00
47220;BME280;32961;51.936;4.788;2023-02-17T07:04:16;101687.78;;;9.29;100.00
47220;BME280;32961;51.936;4.788;2023-02-17T07:06:44;101659.91;;;9.27;100.00
47220;BME280;32961;51.936;4.788;2023-02-17T07:09:12;101667.94;;;9.28;100.00
47220;BME280;32961;51.936;4.788;2023-02-17T07:11:39;101668.78;;;9.29;100.00
47220;BME280;32961;51.936;4.788;2023-02-17T07:14:10;101662.41;;;9.30;100.00
47220;BME280;32961;51.936;4.788;2023-02-17T07:16:38;101676.59;;;9.34;100.00
47220;BME280;32961;51.936;4.788;2023-02-17T07:19:05;101683.75;;;9.35;100.00
47220;BME280;32961;51.936;4.788;2023-02-17T07:21:35;101677.22;;;9.37;100.00
47220;BME280;32961;51.936;4.788;2023-02-17T07:24:03;101690.53;;;9.40;100.00
47220;BME280;32961;51.936;4.788;2023-02-17T07:26:30;101705.84;;;9.41;100.00
47220;BME280;32961;51.936;4.788;2023-02-17T07:28:58;101709.66;;;9.39;100.00
47220;BME280;32961;51.936;4.788;2023-02-17T07:31:27;101707.56;;;9.42;100.00
47220;BME280;32961;51.936;4.788;2023-02-17T07:33:55;101703.13;;;9.41;100.00
47220;BME280;32961;51.936;4.788;2023-02-17T07:36:23;101687.59;;;9.43;100.00
47220;BME280;32961;51.936;4.788;2023-02-17T07:38:52;101681.94;;;9.46;100.00
47220;BME280;32961;51.936;4.788;2023-02-17T07:41:21;101678.38;;;9.46;100.00
47220;BME280;32961;51.936;4.788;2023-02-17T07:43:53;101692.69;;;9.48;100.00
47220;BME280;32961;51.936;4.788;2023-02-17T07:46:21;101691.47;;;9.52;100.00
47220;BME280;32961;51.936;4.788;2023-02-17T07:48:49;101690.38;;;9.55;100.00
47220;BME280;32961;51.936;4.788;2023-02-17T07:51:19;101696.78;;;9.54;100.00
47220;BME280;32961;51.936;4.788;2023-02-17T07:53:48;101690.63;;;9.52;100.00
47220;BME280;32961;51.936;4.788;2023-02-17T07:56:19;101681.25;;;9.56;100.00
47220;BME280;32961;51.936;4.788;2023-02-17T07:58:47;101686.66;;;9.56;100.00
47220;BME280;32961;51.936;4.788;2023-02-17T08:01:16;101694.81;;;9.56;100.00
47220;BME280;32961;51.936;4.788;2023-02-17T08:03:45;101700.75;;;9.61;100.00
47220;BME280;32961;51.936;4.788;2023-02-17T08:06:15;101722.22;;;9.64;100.00
47220;BME280;32961;51.936;4.788;2023-02-17T08:08:44;101717.53;;;9.66;100.00
47220;BME280;32961;51.936;4.788;2023-02-17T08:11:31;101725.47;;;9.69;100.00
47220;BME280;32961;51.936;4.788;2023-02-17T08:14:17;101716.34;;;9.70;100.00
47220;BME280;32961;51.936;4.788;2023-02-17T08:16:47;101731.66;;;9.71;100.00
47220;BME280;32961;51.936;4.788;2023-02-17T08:19:15;101737.78;;;9.73;100.00
47220;BME280;32961;51.936;4.788;2023-02-17T08:21:42;101740.75;;;9.70;100.00
47220;BME280;32961;51.936;4.788;2023-02-17T08:24:10;101735.34;;;9.70;100.00
47220;BME280;32961;51.936;4.788;2023-02-17T08:26:40;101739.66;;;9.73;100.00
47220;BME280;32961;51.936;4.788;2023-02-17T08:29:08;101738.78;;;9.72;100.00
47220;BME280;32961;51.936;4.788;2023-02-17T08:31:36;101730.75;;;9.71;100.00
47220;BME280;32961;51.936;4.788;2023-02-17T08:34:06;101729.78;;;9.72;100.00
47220;BME280;32961;51.936;4.788;2023-02-17T08:36:34;101740.63;;;9.72;100.00
47220;BME280;32961;51.936;4.788;2023-02-17T08:39:04;101752.97;;;9.76;100.00
47220;BME280;32961;51.936;4.788;2023-02-17T08:41:34;101759.03;;;9.79;100.00
47220;BME280;32961;51.936;4.788;2023-02-17T08:44:07;101755.97;;;9.84;100.00
47220;BME280;32961;51.936;4.788;2023-02-17T08:46:35;101755.13;;;9.84;100.00
47220;BME280;32961;51.936;4.788;2023-02-17T08:49:04;101741.78;;;9.80;100.00
47220;BME280;32961;51.936;4.788;2023-02-17T08:51:33;101756.44;;;9.78;100.00
47220;BME280;32961;51.936;4.788;2023-02-17T08:54:03;101729.72;;;9.85;100.00
47220;BME280;32961;51.936;4.788;2023-02-17T08:56:33;101739.56;;;9.86;100.00
47220;BME280;32961;51.936;4.788;2023-02-17T08:59:01;101739.22;;;9.90;100.00
47220;BME280;32961;51.936;4.788;2023-02-17T09:01:30;101744.31;;;9.95;100.00
47220;BME280;32961;51.936;4.788;2023-02-17T09:03:59;101752.66;;;9.92;100.00
47220;BME280;32961;51.936;4.788;2023-02-17T09:06:32;101751.69;;;9.93;100.00
47220;BME280;32961;51.936;4.788;2023-02-17T09:09:01;101736.16;;;9.95;100.00
47220;BME280;32961;51.936;4.788;2023-02-17T09:11:29;101757.88;;;9.95;100.00
47220;BME280;32961;51.936;4.788;2023-02-17T09:13:57;101757.75;;;9.96;100.00
47220;BME280;32961;51.936;4.788;2023-02-17T09:16:25;101761.22;;;9.99;100.00
47220;BME280;32961;51.936;4.788;2023-02-17T09:18:54;101750.50;;;9.97;100.00
47220;BME280;32961;51.936;4.788;2023-02-17T09:21:23;101752.31;;;9.96;100.00
47220;BME280;32961;51.936;4.788;2023-02-17T09:23:51;101776.41;;;10.01;100.00
47220;BME280;32961;51.936;4.788;2023-02-17T09:26:19;101781.34;;;9.96;100.00
47220;BME280;32961;51.936;4.788;2023-02-17T09:28:47;101771.97;;;10.00;100.00
47220;BME280;32961;51.936;4.788;2023-02-17T09:31:19;101787.91;;;10.05;100.00
47220;BME280;32961;51.936;4.788;2023-02-17T09:33:50;101781.97;;;10.00;100.00
47220;BME280;32961;51.936;4.788;2023-02-17T09:36:22;101774.66;;;10.00;100.00
47220;BME280;32961;51.936;4.788;2023-02-17T09:38:51;101767.63;;;9.98;100.00
47220;BME280;32961;51.936;4.788;2023-02-17T09:41:22;101746.88;;;9.96;100.00
47220;BME280;32961;51.936;4.788;2023-02-17T09:43:51;101771.22;;;9.98;100.00
47220;BME280;32961;51.936;4.788;2023-02-17T09:46:25;101762.19;;;9.98;100.00
47220;BME280;32961;51.936;4.788;2023-02-17T09:48:56;101768.25;;;10.01;100.00
47220;BME280;32961;51.936;4.788;2023-02-17T09:51:29;101770.97;;;10.01;100.00
47220;BME280;32961;51.936;4.788;2023-02-17T09:54:05;101770.00;;;10.02;100.00
47220;BME280;32961;51.936;4.788;2023-02-17T09:56:37;101773.34;;;10.06;100.00
47220;BME280;32961;51.936;4.788;2023-02-17T09:59:12;101776.69;;;10.09;100.00
47220;BME280;32961;51.936;4.788;2023-02-17T10:01:42;101778.44;;;10.10;100.00
47220;BME280;32961;51.936;4.788;2023-02-17T10:04:13;101748.56;;;10.10;100.00
47220;BME280;32961;51.936;4.788;2023-02-17T10:06:46;101779.06;;;10.14;100.00
47220;BME280;32961;51.936;4.788;2023-02-17T10:09:18;101774.00;;;10.21;100.00
47220;BME280;32961;51.936;4.788;2023-02-17T10:11:53;101795.97;;;10.18;100.00
47220;BME280;32961;51.936;4.788;2023-02-17T10:14:27;101786.09;;;10.17;100.00
47220;BME280;32961;51.936;4.788;2023-02-17T10:17:00;101789.66;;;10.17;100.00
47220;BME280;32961;51.936;4.788;2023-02-17T10:19:32;101795.72;;;10.21;100.00
47220;BME280;32961;51.936;4.788;2023-02-17T10:22:06;101818.44;;;10.20;100.00
47220;BME280;32961;51.936;4.788;2023-02-17T10:24:35;101806.94;;;10.16;100.00
47220;BME280;32961;51.936;4.788;2023-02-17T10:27:16;101822.25;;;10.17;100.00
47220;BME280;32961;51.936;4.788;2023-02-17T10:29:59;101835.06;;;10.15;100.00
47220;BME280;32961;51.936;4.788;2023-02-17T10:32:44;101809.56;;;10.18;100.00
47220;BME280;32961;51.936;4.788;2023-02-17T10:35:17;101801.63;;;10.15;100.00
47220;BME280;32961;51.936;4.788;2023-02-17T10:37:53;101803.75;;;10.22;100.00
47220;BME280;32961;51.936;4.788;2023-02-17T10:40:27;101815.25;;;10.26;100.00
47220;BME280;32961;51.936;4.788;2023-02-17T10:42:57;101814.03;;;10.30;100.00
47220;BME280;32961;51.936;4.788;2023-02-17T10:45:29;101820.81;;;10.36;100.00
47220;BME280;32961;51.936;4.788;2023-02-17T10:48:02;101800.88;;;10.37;100.00
47220;BME280;32961;51.936;4.788;2023-02-17T10:50:30;101800.66;;;10.40;100.00
47220;BME280;32961;51.936;4.788;2023-02-17T10:52:59;101798.91;;;10.39;100.00
47220;BME280;32961;51.936;4.788;2023-02-17T10:55:33;101796.63;;;10.33;100.00
47220;BME280;32961;51.936;4.788;2023-02-17T10:58:08;101798.16;;;10.37;100.00
47220;BME280;32961;51.936;4.788;2023-02-17T11:00:37;101814.91;;;10.31;100.00
47220;BME280;32961;51.936;4.788;2023-02-17T11:03:18;101813.91;;;10.32;100.00
47220;BME280;32961;51.936;4.788;2023-02-17T11:05:52;101816.75;;;10.30;100.00
47220;BME280;32961;51.936;4.788;2023-02-17T11:08:31;101829.59;;;10.28;100.00
47220;BME280;32961;51.936;4.788;2023-02-17T11:11:02;101838.97;;;10.24;100.00
47220;BME280;32961;51.936;4.788;2023-02-17T11:13:34;101853.00;;;10.18;100.00
47220;BME280;32961;51.936;4.788;2023-02-17T11:16:03;101844.22;;;10.14;100.00
47220;BME280;32961;51.936;4.788;2023-02-17T11:18:34;101837.06;;;10.13;100.00
47220;BME280;32961;51.936;4.788;2023-02-17T11:21:06;101820.53;;;10.16;100.00
47220;BME280;32961;51.936;4.788;2023-02-17T11:23:46;101819.41;;;10.19;100.00
47220;BME280;32961;51.936;4.788;2023-02-17T11:26:17;101850.31;;;10.18;100.00
47220;BME280;32961;51.936;4.788;2023-02-17T11:28:48;101827.69;;;10.17;100.00
47220;BME280;32961;51.936;4.788;2023-02-17T11:31:22;101830.88;;;10.11;100.00
47220;BME280;32961;51.936;4.788;2023-02-17T11:33:50;101827.06;;;10.14;100.00
47220;BME280;32961;51.936;4.788;2023-02-17T11:36:23;101824.34;;;10.14;100.00
47220;BME280;32961;51.936;4.788;2023-02-17T11:38:53;101815.56;;;10.10;100.00
47220;BME280;32961;51.936;4.788;2023-02-17T11:41:21;101837.91;;;10.14;100.00
47220;BME280;32961;51.936;4.788;2023-02-17T11:43:53;101840.00;;;10.10;100.00
47220;BME280;32961;51.936;4.788;2023-02-17T11:46:30;101825.78;;;10.06;100.00
47220;BME280;32961;51.936;4.788;2023-02-17T11:49:32;101842.50;;;10.13;100.00
47220;BME280;32961;51.936;4.788;2023-02-17T11:52:14;101848.56;;;10.17;100.00
47220;BME280;32961;51.936;4.788;2023-02-17T11:55:00;101858.31;;;10.19;100.00
47220;BME280;32961;51.936;4.788;2023-02-17T11:57:37;101868.69;;;10.14;100.00
47220;BME280;32961;51.936;4.788;2023-02-17T12:00:13;101882.25;;;10.14;100.00
47220;BME280;32961;51.936;4.788;2023-02-17T12:05:52;101878.78;;;10.12;100.00
47220;BME280;32961;51.936;4.788;2023-02-17T12:08:29;101873.97;;;10.16;100.00
47220;BME280;32961;51.936;4.788;2023-02-17T12:11:08;101886.34;;;10.20;100.00
47220;BME280;32961;51.936;4.788;2023-02-17T12:13:49;101865.38;;;10.22;100.00
47220;BME280;32961;51.936;4.788;2023-02-17T12:16:33;101871.13;;;10.17;100.00
47220;BME280;32961;51.936;4.788;2023-02-17T12:19:15;101881.25;;;10.15;100.00
47220;BME280;32961;51.936;4.788;2023-02-17T12:21:54;101886.34;;;10.20;100.00
47220;BME280;32961;51.936;4.788;2023-02-17T12:24:36;101878.31;;;10.18;100.00
47220;BME280;32961;51.936;4.788;2023-02-17T12:27:21;101885.81;;;10.15;100.00
47220;BME280;32961;51.936;4.788;2023-02-17T12:30:17;101881.72;;;10.09;100.00
47220;BME280;32961;51.936;4.788;2023-02-17T12:33:00;101885.53;;;10.06;100.00
47220;BME280;32961;51.936;4.788;2023-02-17T12:35:39;101903.81;;;10.04;100.00
47220;BME280;32961;51.936;4.788;2023-02-17T12:38:11;101906.53;;;10.04;100.00
47220;BME280;32961;51.936;4.788;2023-02-17T12:40:45;101920.75;;;10.08;100.00
47220;BME280;32961;51.936;4.788;2023-02-17T12:43:22;101926.78;;;10.11;100.00
47220;BME280;32961;51.936;4.788;2023-02-17T12:45:53;101939.38;;;10.12;100.00
47220;BME280;32961;51.936;4.788;2023-02-17T12:48:27;101928.75;;;10.09;100.00
47220;BME280;32961;51.936;4.788;2023-02-17T12:51:01;101921.13;;;10.15;100.00
47220;BME280;32961;51.936;4.788;2023-02-17T12:53:38;101929.50;;;10.11;100.00
47220;BME280;32961;51.936;4.788;2023-02-17T12:56:36;101935.38;;;10.05;100.00
47220;BME280;32961;51.936;4.788;2023-02-17T12:59:14;101950.69;;;10.06;100.00
47220;BME280;32961;51.936;4.788;2023-02-17T13:01:48;101954.41;;;10.05;100.00
47220;BME280;32961;51.936;4.788;2023-02-17T13:04:19;101939.63;;;10.09;100.00
47220;BME280;32961;51.936;4.788;2023-02-17T13:06:54;101936.66;;;10.12;100.00
47220;BME280;32961;51.936;4.788;2023-02-17T13:09:29;101940.94;;;10.04;100.00
47220;BME280;32961;51.936;4.788;2023-02-17T13:15:01;101926.91;;;10.10;100.00
47220;BME280;32961;51.936;4.788;2023-02-17T13:17:31;101925.81;;;10.12;100.00
47220;BME280;32961;51.936;4.788;2023-02-17T13:20:24;101932.22;;;10.11;100.00
47220;BME280;32961;51.936;4.788;2023-02-17T13:23:05;101934.06;;;10.11;100.00